createdAt,value
2023-02-11T00:04:21.297Z,89
2023-02-11T00:09:27.401Z,89
2023-02-11T00:14:33.533Z,89
2023-02-11T00:19:38.646Z,89.5
2023-02-11T00:24:44.769Z,89.5
2023-02-11T00:29:50.890Z,88.5
2023-02-11T00:34:57.001Z,88.5
2023-02-11T00:40:03.118Z,88.5
2023-02-11T00:45:09.252Z,89
2023-02-11T00:50:15.345Z,88.5
2023-02-11T00:55:21.486Z,88.5
2023-02-11T01:00:27.584Z,88.5
2023-02-11T01:05:33.702Z,87.5
2023-02-11T01:10:39.823Z,88
2023-02-11T01:15:45.949Z,87.5
2023-02-11T01:20:52.070Z,87
2023-02-11T01:25:57.231Z,87
2023-02-11T01:31:03.304Z,87
2023-02-11T01:36:09.446Z,86.5
2023-02-11T01:41:15.549Z,86.5
2023-02-11T01:51:27.791Z,86
2023-02-11T01:56:33.905Z,86.5
2023-02-11T02:01:40.025Z,86.5
2023-02-11T02:06:46.162Z,86.5
2023-02-11T02:11:52.280Z,87
2023-02-11T02:16:58.374Z,87.5
2023-02-11T02:22:04.510Z,87.5
2023-02-11T02:27:10.637Z,87.5
2023-02-11T02:32:15.767Z,87
2023-02-11T02:37:21.868Z,87
2023-02-11T02:42:27.998Z,87
2023-02-11T02:47:34.119Z,87
2023-02-11T02:52:40.254Z,87.5
2023-02-11T02:57:46.346Z,88
2023-02-11T03:02:52.463Z,88
2023-02-11T03:07:58.585Z,87.5
2023-02-11T03:13:04.686Z,88
2023-02-11T03:18:10.825Z,88.5
2023-02-11T03:23:16.921Z,88.5
2023-02-11T03:28:23.060Z,88
2023-02-11T03:33:29.188Z,88
2023-02-11T03:38:34.298Z,88.5
2023-02-11T03:43:40.418Z,88.5
2023-02-11T03:48:46.563Z,89
2023-02-11T03:53:52.693Z,89.5
2023-02-11T03:58:58.814Z,90
2023-02-11T04:04:04.933Z,90
2023-02-11T04:09:11.037Z,90.5
2023-02-11T04:14:17.166Z,91
2023-02-11T04:19:23.280Z,91.5
2023-02-11T04:24:29.460Z,91.5
2023-02-11T04:29:35.531Z,91.5
2023-02-11T04:34:41.653Z,92
2023-02-11T04:39:47.754Z,92
2023-02-11T04:44:53.874Z,92.5
2023-02-11T04:49:59.012Z,92.5
2023-02-11T04:55:05.130Z,92.5
2023-02-11T05:00:11.241Z,92.5
2023-02-11T05:05:17.358Z,93
2023-02-11T05:10:23.474Z,93.5
2023-02-11T05:15:29.592Z,94
2023-02-11T05:20:35.724Z,95
2023-02-11T05:25:41.839Z,96
2023-02-11T05:30:47.946Z,96
2023-02-11T05:35:54.109Z,96
2023-02-11T05:41:00.195Z,96
2023-02-11T05:46:06.296Z,96
2023-02-11T05:51:12.438Z,96
2023-02-11T05:56:17.566Z,96
2023-02-11T06:01:23.684Z,96
2023-02-11T06:06:29.789Z,96
2023-02-11T06:11:35.929Z,96
2023-02-11T06:16:42.054Z,96
2023-02-11T06:21:48.162Z,96.5
2023-02-11T06:26:54.289Z,96.5
2023-02-11T06:32:00.387Z,96.5
2023-02-11T06:37:06.513Z,97
2023-02-11T06:42:12.633Z,97
2023-02-11T06:47:18.744Z,97
2023-02-11T06:52:24.891Z,97
2023-02-11T06:57:30.980Z,97
2023-02-11T07:02:36.122Z,97
2023-02-11T07:07:42.304Z,97.5
2023-02-11T07:12:48.425Z,97.5
2023-02-11T07:17:54.478Z,98
2023-02-11T07:23:00.609Z,98.5
2023-02-11T07:28:06.729Z,98.5
2023-02-11T07:33:12.838Z,98.5
2023-02-11T07:38:18.960Z,99
2023-02-11T07:43:25.088Z,99
2023-02-11T07:48:31.197Z,98.5
2023-02-11T07:58:43.430Z,98.5
2023-02-11T08:03:49.614Z,98
2023-02-11T08:08:54.689Z,98
2023-02-11T08:14:00.835Z,98.5
2023-02-11T08:19:06.966Z,98.5
2023-02-11T08:24:13.097Z,98.5
2023-02-11T08:29:19.188Z,98.5
2023-02-11T08:34:25.304Z,99
2023-02-11T08:39:31.404Z,98.5
2023-02-11T08:44:37.521Z,99.5
2023-02-11T08:49:43.652Z,99
2023-02-11T08:54:49.749Z,99
2023-02-11T08:59:55.914Z,99.5
2023-02-11T09:05:01.991Z,99
2023-02-11T09:10:08.089Z,98.5
2023-02-11T09:15:13.237Z,98.5
2023-02-11T09:20:19.380Z,98.5
2023-02-11T09:25:25.484Z,98
2023-02-11T09:30:31.626Z,97.5
2023-02-11T09:35:37.749Z,98
2023-02-11T09:40:43.858Z,97.5
2023-02-11T09:45:49.979Z,97.5
2023-02-11T09:50:56.092Z,97
2023-02-11T09:56:02.227Z,96.5
2023-02-11T10:01:08.347Z,97
2023-02-11T10:06:14.459Z,97
2023-02-11T10:11:20.564Z,96.5
2023-02-11T10:16:26.746Z,96.5
2023-02-11T10:21:31.816Z,96.5
2023-02-11T10:26:37.933Z,96.5
2023-02-11T10:31:44.048Z,97
2023-02-11T10:36:50.177Z,97.5
2023-02-11T10:41:56.382Z,97.5
2023-02-11T10:47:02.418Z,98
2023-02-11T10:52:08.528Z,98
2023-02-11T10:57:14.658Z,98.5
2023-02-11T11:02:20.752Z,98.5
2023-02-11T11:07:27.033Z,98.5
2023-02-11T11:12:33.052Z,98.5
2023-02-11T11:17:39.341Z,98.5
2023-02-11T11:22:45.446Z,99
2023-02-11T11:27:50.443Z,99
2023-02-11T11:32:56.552Z,99
2023-02-11T11:38:02.784Z,99.5
2023-02-11T11:43:08.798Z,99
2023-02-11T11:48:14.909Z,99
2023-02-11T11:53:21.009Z,98.5
2023-02-11T11:58:27.298Z,98.5
2023-02-11T12:03:33.254Z,98.5
2023-02-11T12:13:45.501Z,98.5
2023-02-11T12:18:51.615Z,98.5
2023-02-11T12:23:57.715Z,98
2023-02-11T12:29:03.853Z,98
2023-02-11T12:34:08.969Z,97.5
2023-02-11T12:39:15.096Z,97.5
2023-02-11T12:44:21.218Z,97
2023-02-11T12:49:27.331Z,97
2023-02-11T12:54:33.444Z,96.5
2023-02-11T12:59:39.560Z,96.5
2023-02-11T13:04:45.709Z,96
2023-02-11T13:09:51.798Z,96
2023-02-11T13:14:57.928Z,96
2023-02-11T13:20:04.031Z,95.5
2023-02-11T13:25:10.193Z,95
2023-02-11T13:30:16.255Z,94.5
2023-02-11T13:35:22.383Z,94.5
2023-02-11T13:40:27.652Z,94.5
2023-02-11T13:45:33.713Z,94.5
2023-02-11T13:50:39.722Z,94.5
2023-02-11T13:55:45.829Z,94.5
2023-02-11T14:00:52.006Z,94
2023-02-11T14:05:58.124Z,94.5
2023-02-11T14:11:04.168Z,95
2023-02-11T14:16:10.326Z,95
2023-02-11T14:21:16.394Z,95
2023-02-11T14:26:22.637Z,95
2023-02-11T14:31:28.636Z,95.5
2023-02-11T14:36:34.729Z,95.5
2023-02-11T14:41:40.855Z,95.5
2023-02-11T14:46:45.977Z,96
2023-02-11T14:51:52.086Z,96
2023-02-11T14:56:58.198Z,96.5
2023-02-11T15:02:04.294Z,96
2023-02-11T15:07:10.429Z,96.5
2023-02-11T15:12:15.551Z,96
2023-02-11T15:17:21.678Z,96
2023-02-11T15:22:27.807Z,96.5
2023-02-11T15:27:33.916Z,96.5
2023-02-11T15:32:40.032Z,96.5
2023-02-11T15:37:46.150Z,96.5
2023-02-11T15:42:52.266Z,96.5
2023-02-11T15:47:58.370Z,97
2023-02-11T15:53:04.485Z,97.5
2023-02-11T15:58:10.590Z,97.5
2023-02-11T16:03:16.711Z,98
2023-02-11T16:08:22.811Z,98
2023-02-11T16:13:28.935Z,98.5
2023-02-11T16:18:34.064Z,98
2023-02-11T16:23:40.273Z,98.5
2023-02-11T16:28:46.277Z,98.5
2023-02-11T16:33:52.428Z,98
2023-02-11T16:38:58.566Z,98.5
2023-02-11T16:44:04.637Z,99
2023-02-11T16:49:10.776Z,99.5
2023-02-11T16:54:16.854Z,99
2023-02-11T16:59:22.972Z,99.5
2023-02-11T17:04:29.083Z,99.5
2023-02-11T17:09:35.197Z,99.5
2023-02-11T17:14:41.313Z,99.5
2023-02-11T17:19:47.426Z,99.5
2023-02-11T17:24:52.557Z,99.5
2023-02-11T17:29:58.674Z,99.5
2023-02-11T17:35:04.824Z,99.5
2023-02-11T17:40:10.935Z,99.5
2023-02-11T17:45:17.104Z,99.5
2023-02-11T17:50:23.170Z,99.5
2023-02-11T17:55:29.253Z,99.5
2023-02-11T18:00:35.375Z,99.5
2023-02-11T18:05:41.520Z,99.5
2023-02-11T18:10:47.606Z,99.5
2023-02-11T18:15:53.732Z,99.5
2023-02-11T18:20:59.853Z,99.5
2023-02-11T18:26:05.963Z,99.5
2023-02-11T18:31:11.085Z,99.5
2023-02-11T18:36:17.743Z,99.5
2023-02-11T18:41:23.318Z,99.5
2023-02-11T18:46:29.532Z,99.5
2023-02-11T18:51:35.565Z,99.5
2023-02-11T18:56:41.691Z,99.5
2023-02-11T19:01:47.798Z,99.5
2023-02-11T19:06:53.918Z,99.5
2023-02-11T19:12:00.061Z,99.5
2023-02-11T19:17:06.159Z,99.5
2023-02-11T19:22:12.265Z,99.5
2023-02-11T19:27:18.392Z,99.5
2023-02-11T19:32:24.509Z,99.5
2023-02-11T19:37:29.678Z,99.5
2023-02-11T19:42:35.747Z,99.5
2023-02-11T19:47:41.871Z,99.5
2023-02-11T19:52:48.032Z,99.5
2023-02-11T19:57:54.112Z,99.5
2023-02-11T20:03:00.234Z,99.5
2023-02-11T20:08:06.359Z,99.5
2023-02-11T20:13:12.445Z,99.5
2023-02-11T20:18:18.559Z,99.5
2023-02-11T20:23:24.691Z,99.5
2023-02-11T20:28:30.817Z,99.5
2023-02-11T20:33:36.976Z,99.5
2023-02-11T20:38:43.052Z,99.5
2023-02-11T20:43:48.176Z,99.5
2023-02-11T20:48:54.339Z,99.5
2023-02-11T20:54:00.419Z,99.5
2023-02-11T20:59:06.549Z,99.5
2023-02-11T21:04:12.678Z,99.5
2023-02-11T21:09:18.761Z,99.5
2023-02-11T21:14:24.887Z,99.5
2023-02-11T21:19:31.013Z,99.5
2023-02-11T21:24:37.115Z,99.5
2023-02-11T21:29:43.253Z,99.5
2023-02-11T21:34:49.407Z,99.5
2023-02-11T21:39:55.511Z,99.5
2023-02-11T21:45:01.621Z,99.5
2023-02-11T21:50:06.762Z,99.5
2023-02-11T21:55:12.874Z,99.5
2023-02-11T22:00:18.990Z,99.5
2023-02-11T22:05:25.209Z,99.5
2023-02-11T22:10:31.261Z,99.5
2023-02-11T22:15:37.356Z,99.5
2023-02-11T22:20:43.465Z,99.5
2023-02-11T22:25:49.578Z,99.5
2023-02-11T22:30:55.785Z,99.5
2023-02-11T22:36:01.811Z,99.5
2023-02-11T22:41:07.933Z,99.5
2023-02-11T22:46:14.105Z,99.5
2023-02-11T22:51:20.198Z,99.5
2023-02-11T22:56:25.302Z,99.5
2023-02-11T23:01:31.428Z,99.5
2023-02-11T23:06:37.540Z,99.5
2023-02-11T23:11:43.683Z,99.5
2023-02-11T23:16:49.788Z,99.5
2023-02-11T23:21:55.889Z,99.5
2023-02-11T23:27:01.999Z,99.5
2023-02-11T23:32:08.144Z,99.5
2023-02-11T23:37:14.271Z,99.5
2023-02-11T23:42:20.376Z,99.5
2023-02-11T23:47:26.487Z,99.5
2023-02-11T23:52:32.628Z,99.5
2023-02-11T23:57:38.720Z,99.5
